Time;durP1;ratioP1;P1;durP2;ratioP2;P2;SDS_P1;SDS_P2;PMS_P1;PMS_P2;Temp;Humidity;BMP_temperature;BMP_pressure;BME280_temperature;BME280_humidity;BME280_pressure;Samples;Min_cycle;Max_cycle;Signal;HPM_P1;HPM_P2
2022/12/02 00:00:30;;;;;;;40.35;19.98;;;4.10;99.90;;;;;;5024346;28;20037;-77
2022/12/02 00:03:16;;;;;;;41.83;20.27;;;2.20;99.90;;;;;;4988604;28;20042;-76
2022/12/02 00:06:41;;;;;;;35.35;18.60;;;3.30;99.90;;;;;;4958722;28;20034;-75
2022/12/02 00:09:34;;;;;;;39.53;19.10;;;3.10;99.90;;;;;;4943775;28;20353;-75
2022/12/02 00:12:41;;;;;;;38.40;18.02;;;3.20;99.90;;;;;;4937189;29;20081;-76
2022/12/02 00:15:36;;;;;;;39.83;20.23;;;4.60;99.90;;;;;;4926079;29;20355;-75
2022/12/02 00:18:15;;;;;;;39.00;20.10;;;3.20;99.90;;;;;;4940678;29;20078;-76
2022/12/02 00:20:42;;;;;;;36.67;18.63;;;3.10;99.90;;;;;;4925471;29;20043;-76
2022/12/02 00:23:11;;;;;;;40.05;19.58;;;4.10;99.90;;;;;;4921693;29;20059;-76
2022/12/02 00:25:38;;;;;;;41.95;19.80;;;3.30;99.90;;;;;;4924805;29;20075;-76
2022/12/02 00:28:04;;;;;;;42.45;19.42;;;3.30;99.90;;;;;;4923610;29;20032;-77
2022/12/02 00:30:39;;;;;;;36.65;19.30;;;3.30;99.90;;;;;;4926949;29;20035;-77
2022/12/02 00:33:06;;;;;;;38.08;18.65;;;3.30;99.90;;;;;;4935105;28;20102;-77
2022/12/02 00:35:34;;;;;;;38.10;17.98;;;3.20;99.90;;;;;;5039219;28;20033;-76
2022/12/02 00:38:00;;;;;;;34.95;17.02;;;3.70;99.90;;;;;;5003593;28;20052;-76
2022/12/02 00:40:25;;;;;;;34.88;17.77;;;4.50;99.90;;;;;;5025196;28;20037;-77
2022/12/02 00:42:51;;;;;;;37.55;17.23;;;3.20;99.90;;;;;;4990600;28;20114;-77
2022/12/02 00:48:13;;;;;;;35.45;17.08;;;3.20;99.90;;;;;;5018536;28;20046;-76
2022/12/02 00:50:39;;;;;;;30.90;16.60;;;4.10;99.90;;;;;;5005833;28;20132;-76
2022/12/02 00:53:05;;;;;;;33.55;16.90;;;3.20;99.90;;;;;;5021571;28;20197;-76
2022/12/02 00:55:30;;;;;;;35.83;16.77;;;3.30;99.90;;;;;;5023701;28;20325;-76
2022/12/02 00:57:56;;;;;;;33.60;16.58;;;3.20;99.90;;;;;;5006867;28;20033;-76
2022/12/02 01:00:22;;;;;;;39.97;17.10;;;3.20;99.90;;;;;;5015271;28;20025;-76
2022/12/02 01:02:47;;;;;;;38.63;18.15;;;3.10;99.90;;;;;;4994242;28;20041;-78
2022/12/02 01:05:13;;;;;;;34.80;16.33;;;4.20;99.90;;;;;;5022812;28;20037;-77
2022/12/02 01:07:39;;;;;;;45.70;17.88;;;4.20;99.90;;;;;;5002104;28;20033;-77
2022/12/02 01:10:05;;;;;;;33.72;14.55;;;3.10;99.90;;;;;;4989779;28;20032;-75
2022/12/02 01:12:31;;;;;;;34.38;16.25;;;3.10;99.90;;;;;;5019810;28;20040;-76
2022/12/02 01:14:56;;;;;;;34.08;15.95;;;3.10;99.90;;;;;;5023725;28;20053;-77
2022/12/02 01:17:22;;;;;;;39.47;16.40;;;3.10;99.90;;;;;;5026242;28;20052;-76
2022/12/02 01:19:48;;;;;;;34.95;13.88;;;3.10;99.90;;;;;;5017002;28;20111;-77
2022/12/02 01:22:13;;;;;;;38.08;16.52;;;3.70;99.90;;;;;;5008425;28;20033;-76
2022/12/02 01:24:39;;;;;;;29.92;15.30;;;3.20;99.90;;;;;;5013419;28;20053;-78
2022/12/02 01:27:05;;;;;;;35.47;16.40;;;3.00;99.90;;;;;;4988247;28;20057;-76
2022/12/02 01:29:30;;;;;;;39.92;16.48;;;4.00;99.90;;;;;;4984785;28;20096;-76
2022/12/02 01:31:56;;;;;;;37.72;17.42;;;3.80;99.90;;;;;;5023155;28;20082;-75
2022/12/02 01:34:21;;;;;;;36.17;16.48;;;3.10;99.90;;;;;;5005140;28;20032;-75
2022/12/02 01:36:47;;;;;;;40.22;17.38;;;3.10;99.90;;;;;;5031477;28;20051;-75
2022/12/02 01:39:13;;;;;;;32.97;15.65;;;3.80;99.90;;;;;;4985846;28;20065;-75
2022/12/02 01:41:42;;;;;;;36.90;16.58;;;3.10;99.90;;;;;;4990178;28;20040;-75
2022/12/02 01:44:08;;;;;;;43.25;17.95;;;3.10;99.90;;;;;;4976604;28;20069;-76
2022/12/02 01:46:33;;;;;;;39.80;17.75;;;4.50;99.90;;;;;;5010761;28;20104;-76
2022/12/02 01:48:59;;;;;;;40.28;17.40;;;3.10;99.90;;;;;;5023388;28;20060;-76
2022/12/02 01:51:25;;;;;;;40.17;18.00;;;3.00;99.90;;;;;;5020871;28;20039;-76
2022/12/02 01:53:51;;;;;;;39.97;17.33;;;3.00;99.90;;;;;;5021744;28;20036;-77
2022/12/02 01:56:17;;;;;;;41.15;17.67;;;3.10;99.90;;;;;;5033779;28;20072;-74
2022/12/02 01:58:43;;;;;;;35.78;16.40;;;3.00;99.90;;;;;;5007593;28;20316;-75
2022/12/02 02:01:32;;;;;;;39.13;19.42;;;3.30;99.90;;;;;;4992696;28;20034;-75
2022/12/02 02:03:59;;;;;;;37.40;17.83;;;3.00;99.90;;;;;;5003670;28;20328;-74
2022/12/02 02:06:28;;;;;;;37.60;18.58;;;3.30;99.90;;;;;;5005257;28;20045;-74
2022/12/02 02:09:30;;;;;;;40.88;18.63;;;3.00;99.90;;;;;;5001411;28;20030;-75
2022/12/02 02:11:56;;;;;;;40.70;18.27;;;3.00;99.90;;;;;;5007643;28;20048;-77
2022/12/02 02:14:22;;;;;;;37.55;19.17;;;3.00;99.90;;;;;;5020345;28;20048;-76
2022/12/02 02:16:47;;;;;;;44.83;19.80;;;3.20;99.90;;;;;;5023085;28;20292;-76
2022/12/02 02:19:14;;;;;;;41.42;19.20;;;3.00;99.90;;;;;;5023060;28;20342;-78
2022/12/02 02:21:47;;;;;;;42.05;19.50;;;3.30;99.90;;;;;;5008106;28;20029;-76
2022/12/02 02:24:13;;;;;;;47.28;21.15;;;3.00;99.90;;;;;;5027438;28;20025;-76
2022/12/02 02:26:39;;;;;;;39.42;18.77;;;3.20;99.90;;;;;;5041112;28;20327;-77
2022/12/02 02:29:04;;;;;;;40.80;18.52;;;2.90;99.90;;;;;;5010128;28;20099;-77
2022/12/02 02:31:30;;;;;;;43.35;19.40;;;3.00;99.90;;;;;;5029604;28;20342;-76
2022/12/02 02:33:56;;;;;;;37.88;18.77;;;3.70;99.90;;;;;;5026722;28;20032;-76
2022/12/02 02:36:27;;;;;;;37.58;18.33;;;2.90;99.90;;;;;;5046228;28;20231;-77
2022/12/02 02:38:53;;;;;;;38.05;18.58;;;2.80;99.90;;;;;;5010999;28;20068;-76
2022/12/02 02:41:19;;;;;;;41.53;19.33;;;3.00;99.90;;;;;;5037812;28;20071;-76
2022/12/02 02:43:45;;;;;;;39.05;17.75;;;2.70;99.90;;;;;;4994578;28;20368;-75
2022/12/02 02:46:11;;;;;;;41.25;18.70;;;2.70;99.90;;;;;;5011981;28;20048;-75
2022/12/02 02:48:40;;;;;;;33.85;16.77;;;2.70;99.90;;;;;;5040824;28;20025;-77
2022/12/02 02:51:13;;;;;;;35.72;17.05;;;2.70;99.90;;;;;;5034569;28;20040;-75
2022/12/02 02:53:39;;;;;;;37.08;17.23;;;2.60;99.90;;;;;;5014983;28;20111;-76
2022/12/02 02:56:05;;;;;;;33.47;16.63;;;2.80;99.90;;;;;;5042601;28;20032;-75
2022/12/02 02:58:33;;;;;;;35.92;17.08;;;2.70;99.90;;;;;;5025516;28;20090;-75
2022/12/02 03:01:10;;;;;;;41.05;18.27;;;3.00;99.90;;;;;;5024301;28;20045;-77
2022/12/02 03:03:51;;;;;;;36.00;18.00;;;3.30;99.90;;;;;;5041942;28;20227;-76
2022/12/02 03:06:17;;;;;;;37.72;18.55;;;2.70;99.90;;;;;;5037790;28;20051;-76
2022/12/02 03:08:46;;;;;;;41.78;17.92;;;2.70;99.90;;;;;;5042934;28;20037;-77
2022/12/02 03:11:12;;;;;;;36.13;17.25;;;2.60;99.90;;;;;;5022007;28;20045;-76
2022/12/02 03:13:39;;;;;;;36.47;17.25;;;2.90;99.90;;;;;;5025387;28;20029;-76
2022/12/02 03:16:08;;;;;;;33.08;15.27;;;2.70;99.90;;;;;;5045854;28;20060;-75
2022/12/02 03:22:38;;;;;;;36.97;17.48;;;2.70;99.90;;;;;;5043670;28;20053;-78
2022/12/02 03:25:07;;;;;;;36.20;17.63;;;1.80;99.90;;;;;;5040076;28;20235;-75
2022/12/02 03:27:43;;;;;;;38.55;17.98;;;3.30;99.90;;;;;;5009927;28;20071;-76
2022/12/02 03:30:09;;;;;;;36.55;17.15;;;3.50;99.90;;;;;;5041821;28;20025;-77
2022/12/02 03:32:35;;;;;;;38.88;17.23;;;2.60;99.90;;;;;;5013900;28;20231;-78
2022/12/02 03:35:02;;;;;;;40.47;18.20;;;2.60;99.90;;;;;;5026997;28;20037;-76
2022/12/02 03:37:28;;;;;;;38.28;18.27;;;2.60;99.90;;;;;;5026250;28;20024;-76
2022/12/02 03:39:53;;;;;;;39.08;17.48;;;2.60;99.90;;;;;;5043472;28;20044;-74
2022/12/02 03:42:21;;;;;;;42.08;18.70;;;2.50;99.90;;;;;;5039637;28;20025;-76
2022/12/02 03:44:49;;;;;;;36.05;17.10;;;2.60;99.90;;;;;;5036811;28;20144;-76
2022/12/02 03:47:14;;;;;;;36.42;16.45;;;2.50;99.90;;;;;;5042128;28;20033;-75
2022/12/02 03:49:40;;;;;;;40.53;18.23;;;2.60;99.90;;;;;;5012857;28;20087;-75
2022/12/02 03:52:06;;;;;;;35.88;15.98;;;2.60;99.90;;;;;;5005498;28;20075;-75
2022/12/02 03:54:32;;;;;;;40.85;17.73;;;2.60;99.90;;;;;;5025392;28;20029;-75
2022/12/02 03:56:58;;;;;;;44.55;18.63;;;2.60;99.90;;;;;;5008747;28;20266;-77
2022/12/02 03:59:29;;;;;;;42.97;17.70;;;2.60;99.90;;;;;;5014826;28;20041;-75
2022/12/02 04:01:54;;;;;;;44.58;19.20;;;3.80;99.90;;;;;;5037128;28;20045;-76
2022/12/02 04:04:20;;;;;;;41.35;18.92;;;2.60;99.90;;;;;;5042900;28;20212;-76
2022/12/02 04:06:46;;;;;;;45.65;19.58;;;2.60;99.90;;;;;;5028810;28;20068;-77
2022/12/02 04:09:15;;;;;;;40.35;18.55;;;2.90;99.90;;;;;;5024923;28;20029;-78
2022/12/02 04:11:41;;;;;;;43.38;19.70;;;3.10;99.90;;;;;;5043605;28;20247;-78
2022/12/02 04:14:06;;;;;;;43.65;18.88;;;2.60;99.90;;;;;;5027084;28;20070;-78
2022/12/02 04:16:32;;;;;;;40.08;18.02;;;3.80;99.90;;;;;;5026371;28;20136;-77
2022/12/02 04:18:58;;;;;;;42.95;20.02;;;2.60;99.90;;;;;;5009100;28;20044;-77
2022/12/02 04:21:23;;;;;;;43.10;18.98;;;2.60;99.90;;;;;;5012772;28;20220;-76
2022/12/02 04:23:51;;;;;;;39.85;17.25;;;2.60;99.90;;;;;;5045833;28;20079;-77
2022/12/02 04:27:06;;;;;;;46.58;19.23;;;3.10;99.90;;;;;;5021766;28;20096;-78
2022/12/02 04:29:32;;;;;;;51.17;21.17;;;3.70;99.90;;;;;;5038000;28;20041;-76
2022/12/02 04:31:57;;;;;;;45.13;19.33;;;2.60;99.90;;;;;;5040759;28;20093;-77
2022/12/02 04:34:23;;;;;;;45.58;20.92;;;2.70;99.90;;;;;;4992434;28;20108;-77
2022/12/02 04:36:49;;;;;;;48.10;21.27;;;2.60;99.90;;;;;;5025633;28;20043;-77
2022/12/02 04:39:14;;;;;;;44.67;19.70;;;2.90;99.90;;;;;;5041056;28;20062;-76
2022/12/02 04:41:40;;;;;;;43.17;20.90;;;2.60;99.90;;;;;;5030754;28;20040;-75
2022/12/02 04:44:05;;;;;;;52.17;21.58;;;2.60;99.90;;;;;;5024478;28;20043;-74
2022/12/02 04:46:31;;;;;;;47.92;21.60;;;3.30;99.90;;;;;;5024450;28;20072;-75
2022/12/02 04:48:57;;;;;;;50.33;19.70;;;2.70;99.90;;;;;;5026571;28;20032;-74
2022/12/02 04:51:22;;;;;;;44.80;19.92;;;3.50;99.90;;;;;;5029598;28;20099;-76
2022/12/02 04:53:49;;;;;;;44.15;18.77;;;2.80;99.90;;;;;;5022734;28;20028;-76
2022/12/02 04:56:14;;;;;;;46.80;20.58;;;2.70;99.90;;;;;;5041972;28;20032;-77
2022/12/02 04:58:40;;;;;;;46.08;19.20;;;2.70;99.90;;;;;;5040427;28;20106;-75
2022/12/02 05:01:05;;;;;;;44.05;18.60;;;3.00;99.90;;;;;;5027831;28;20032;-74
2022/12/02 05:03:31;;;;;;;47.38;20.67;;;2.70;99.90;;;;;;5038964;28;20041;-74
2022/12/02 05:05:57;;;;;;;45.22;19.10;;;3.20;99.90;;;;;;5024774;28;20029;-74
2022/12/02 05:08:22;;;;;;;43.60;20.13;;;4.00;99.90;;;;;;5034360;28;20037;-74
2022/12/02 05:10:48;;;;;;;45.90;19.17;;;2.70;99.90;;;;;;5013794;28;20033;-75
2022/12/02 05:13:14;;;;;;;43.97;19.83;;;2.70;99.90;;;;;;5039048;28;20032;-75
2022/12/02 05:15:40;;;;;;;43.85;18.05;;;3.40;99.90;;;;;;5038275;28;20404;-75
2022/12/02 05:18:05;;;;;;;45.25;18.13;;;2.70;99.90;;;;;;5017641;28;20212;-76
2022/12/02 05:20:31;;;;;;;43.33;17.67;;;2.70;99.90;;;;;;5007594;28;20047;-75
2022/12/02 05:22:57;;;;;;;46.30;18.98;;;2.70;99.90;;;;;;5038770;28;20113;-75
2022/12/02 05:25:22;;;;;;;41.58;17.90;;;2.70;99.90;;;;;;5038613;28;20029;-75
2022/12/02 05:27:48;;;;;;;46.35;19.88;;;2.60;99.90;;;;;;5006355;28;20277;-76
2022/12/02 05:30:14;;;;;;;44.00;19.35;;;2.90;99.90;;;;;;5017945;28;20328;-75
2022/12/02 05:32:42;;;;;;;51.97;21.80;;;2.70;99.90;;;;;;5006268;28;20033;-76
2022/12/02 05:35:07;;;;;;;44.38;18.88;;;2.70;99.90;;;;;;5020425;28;20045;-76
2022/12/02 05:37:33;;;;;;;43.03;18.83;;;2.70;99.90;;;;;;5035735;28;20033;-75
2022/12/02 05:40:00;;;;;;;46.60;20.38;;;2.60;99.90;;;;;;5001003;28;20041;-76
2022/12/02 05:42:27;;;;;;;47.05;19.63;;;2.70;99.90;;;;;;5034567;28;20102;-75
2022/12/02 05:44:53;;;;;;;44.05;19.63;;;2.70;99.90;;;;;;5023473;28;20086;-74
2022/12/02 05:47:20;;;;;;;48.38;20.35;;;2.70;99.90;;;;;;5037048;28;20037;-75
2022/12/02 05:49:46;;;;;;;48.70;17.42;;;2.70;99.90;;;;;;5036474;28;20034;-75
2022/12/02 05:52:26;;;;;;;47.30;19.48;;;2.70;99.90;;;;;;5041956;28;20028;-75
2022/12/02 05:54:58;;;;;;;44.40;19.15;;;3.40;99.90;;;;;;5025298;28;20036;-77
2022/12/02 05:57:28;;;;;;;46.70;19.30;;;3.60;99.90;;;;;;5017727;28;20037;-75
2022/12/02 06:00:17;;;;;;;48.58;19.02;;;3.00;99.90;;;;;;5038710;28;20100;-78
2022/12/02 06:02:46;;;;;;;48.53;20.42;;;3.00;99.90;;;;;;5038897;28;20036;-74
2022/12/02 06:05:16;;;;;;;50.13;19.40;;;2.80;99.90;;;;;;5032386;28;20025;-74
2022/12/02 06:07:41;;;;;;;45.78;19.73;;;2.70;99.90;;;;;;5037506;28;20074;-75
2022/12/02 06:10:31;;;;;;;50.03;19.00;;;2.80;99.90;;;;;;5028574;28;20033;-75
2022/12/02 06:13:16;;;;;;;45.75;17.77;;;2.80;99.90;;;;;;5020312;28;20140;-75
2022/12/02 06:15:42;;;;;;;;;;;2.80;99.90;;;;;;5042184;28;20052;-74
2022/12/02 06:18:20;;;;;;;46.83;19.38;;;2.80;99.90;;;;;;5044070;28;19913;-74
2022/12/02 06:20:52;;;;;;;51.90;21.10;;;2.90;99.90;;;;;;5037056;28;20056;-74
2022/12/02 06:23:22;;;;;;;50.38;21.80;;;3.80;99.90;;;;;;5029758;28;20037;-75
2022/12/02 06:25:50;;;;;;;51.80;20.27;;;3.80;99.90;;;;;;5024451;28;20227;-76
2022/12/02 06:28:27;;;;;;;49.60;20.45;;;2.90;99.90;;;;;;5043087;28;20034;-77
2022/12/02 06:31:01;;;;;;;55.58;22.42;;;2.80;99.90;;;;;;5020708;28;20037;-74
2022/12/02 06:33:31;;;;;;;51.53;20.30;;;2.90;99.90;;;;;;5046010;28;20047;-74
2022/12/02 06:35:59;;;;;;;51.70;22.55;;;3.00;99.90;;;;;;5021732;28;20032;-74
2022/12/02 06:38:34;;;;;;;52.08;22.58;;;3.00;99.90;;;;;;5041993;28;20293;-75
2022/12/02 06:41:13;;;;;;;56.17;22.15;;;2.90;99.90;;;;;;5021494;28;20029;-75
2022/12/02 06:43:39;;;;;;;54.20;19.48;;;3.00;99.90;;;;;;5027236;28;20237;-74
2022/12/02 06:46:18;;;;;;;56.67;21.92;;;3.00;99.90;;;;;;5007113;28;20093;-75
2022/12/02 06:48:44;;;;;;;54.47;22.42;;;3.10;99.90;;;;;;5034961;28;20024;-75
2022/12/02 06:51:15;;;;;;;54.38;22.50;;;3.00;99.90;;;;;;5022495;28;20126;-75
2022/12/02 06:53:41;;;;;;;54.28;23.83;;;4.20;99.90;;;;;;5037249;28;20025;-74
2022/12/02 06:56:30;;;;;;;52.20;23.30;;;3.40;99.90;;;;;;5018809;28;20082;-74
2022/12/02 06:59:03;;;;;;;53.95;23.90;;;3.10;99.90;;;;;;5021897;28;20048;-72
2022/12/02 07:01:31;;;;;;;53.65;22.40;;;3.20;99.90;;;;;;5036310;28;20350;-74
2022/12/02 07:04:12;;;;;;;57.45;21.33;;;4.20;99.90;;;;;;5039050;28;20266;-76
2022/12/02 07:06:40;;;;;;;55.15;21.77;;;3.20;99.90;;;;;;5036734;28;20045;-75
2022/12/02 07:09:35;;;;;;;53.85;21.83;;;3.30;99.90;;;;;;5041010;28;20063;-76
2022/12/02 07:12:01;;;;;;;53.35;22.48;;;3.20;99.90;;;;;;5023826;28;20040;-75
2022/12/02 07:14:47;;;;;;;52.28;23.42;;;3.20;99.90;;;;;;5021158;28;20232;-75
2022/12/02 07:17:23;;;;;;;57.95;23.45;;;3.40;99.90;;;;;;5039058;28;20052;-75
2022/12/02 07:20:06;;;;;;;52.80;23.30;;;3.30;99.90;;;;;;5040766;28;20029;-75
2022/12/02 07:22:42;;;;;;;59.65;24.85;;;3.30;99.90;;;;;;5040308;28;20041;-76
2022/12/02 07:25:20;;;;;;;52.00;22.92;;;3.20;99.90;;;;;;5049378;28;20033;-75
2022/12/02 07:27:48;;;;;;;59.88;22.95;;;3.30;99.90;;;;;;5033779;28;20079;-73
2022/12/02 07:30:50;;;;;;;55.75;23.38;;;4.10;99.90;;;;;;5053617;28;20063;-74
2022/12/02 07:33:16;;;;;;;50.67;21.42;;;3.20;99.90;;;;;;5031776;28;20071;-75
2022/12/02 07:35:41;;;;;;;57.65;24.50;;;3.50;99.90;;;;;;5039282;28;20033;-74
2022/12/02 07:38:07;;;;;;;56.08;25.35;;;3.20;99.90;;;;;;5021558;28;20033;-76
2022/12/02 07:40:34;;;;;;;55.35;23.88;;;4.20;99.90;;;;;;5045720;28;20041;-76
2022/12/02 07:43:00;;;;;;;56.65;22.98;;;3.20;99.90;;;;;;5007359;28;20032;-75
2022/12/02 07:45:25;;;;;;;45.28;20.38;;;3.60;99.90;;;;;;5025147;28;20355;-75
2022/12/02 07:47:51;;;;;;;58.45;24.50;;;4.40;99.90;;;;;;5015013;28;20033;-76
2022/12/02 07:50:17;;;;;;;55.83;22.88;;;3.10;99.90;;;;;;5023892;28;20021;-76
2022/12/02 07:52:43;;;;;;;52.50;22.90;;;3.90;99.90;;;;;;5024830;28;20339;-76
2022/12/02 07:55:35;;;;;;;53.88;23.45;;;3.00;99.90;;;;;;5024485;28;20041;-77
2022/12/02 07:59:01;;;;;;;;;;;;;;;;;;;;;
2022/12/02 08:01:35;;;;;;;60.90;24.40;;;2.90;99.90;;;;;;4978141;28;20037;-77
2022/12/02 08:04:01;;;;;;;52.55;23.30;;;2.80;99.90;;;;;;5001675;28;20324;-76
2022/12/02 08:06:27;;;;;;;49.65;24.15;;;2.70;99.90;;;;;;5002627;28;20108;-76
2022/12/02 08:08:56;;;;;;;48.22;20.85;;;2.70;99.90;;;;;;5014159;28;20032;-75
2022/12/02 08:12:06;;;;;;;;;;;;;;;;;;;;;
2022/12/02 08:15:02;;;;;;;46.33;18.48;;;2.60;99.90;;;;;;4923782;29;20096;-75
2022/12/02 08:17:30;;;;;;;45.10;19.58;;;2.60;99.90;;;;;;4979594;28;20097;-76
2022/12/02 08:19:56;;;;;;;54.22;21.75;;;3.10;99.90;;;;;;5004544;28;20332;-76
2022/12/02 08:22:22;;;;;;;52.40;23.55;;;2.00;99.90;;;;;;5002260;28;20038;-75
2022/12/02 08:28:42;;;;;;;49.22;20.33;;;2.90;99.90;;;;;;4980139;28;20116;-76
2022/12/02 08:31:08;;;;;;;52.35;21.10;;;2.50;99.90;;;;;;4994657;28;20024;-76
2022/12/02 08:33:34;;;;;;;51.22;20.45;;;4.10;99.90;;;;;;5019808;28;20049;-77
2022/12/02 08:39:37;;;;;;;42.88;16.08;;;3.00;99.90;;;;;;5028270;28;20049;-76
2022/12/02 08:42:06;;;;;;;50.60;20.73;;;3.80;99.90;;;;;;5027947;28;20160;-77
2022/12/02 08:44:42;;;;;;;51.17;20.85;;;1.40;99.90;;;;;;5030974;28;20048;-76
2022/12/02 08:47:11;;;;;;;51.22;20.85;;;2.40;99.90;;;;;;5006158;28;20035;-77
2022/12/02 08:49:49;;;;;;;47.63;19.90;;;2.50;99.90;;;;;;5020669;28;20154;-76
2022/12/02 08:52:15;;;;;;;44.00;17.00;;;2.40;99.90;;;;;;4993710;28;20212;-76
2022/12/02 08:54:42;;;;;;;44.60;19.73;;;2.40;99.90;;;;;;5038294;28;20037;-77
2022/12/02 08:57:08;;;;;;;45.35;18.75;;;2.40;99.90;;;;;;5014143;28;20025;-76
2022/12/02 08:59:34;;;;;;;50.10;19.75;;;2.40;99.90;;;;;;5018443;28;20071;-76
2022/12/02 09:02:11;;;;;;;38.28;15.35;;;2.50;99.90;;;;;;5015718;28;20033;-75
2022/12/02 09:04:40;;;;;;;45.22;18.27;;;2.20;99.90;;;;;;5019405;28;20083;-76
2022/12/02 09:07:06;;;;;;;49.53;18.63;;;2.40;99.90;;;;;;5034514;28;20030;-76
2022/12/02 09:09:34;;;;;;;52.05;20.73;;;1.90;99.90;;;;;;5020653;28;20108;-75
2022/12/02 09:20:09;;;;;;;52.17;21.40;;;2.50;99.90;;;;;;5019354;28;20050;-75
2022/12/02 09:23:03;;;;;;;;;;;;;;;;;;;;;
2022/12/02 09:25:57;;;;;;;52.97;20.45;;;4.40;99.90;;;;;;5005379;28;20304;-75
2022/12/02 09:28:35;;;;;;;43.28;17.67;;;1.60;99.90;;;;;;4972850;28;20030;-77
2022/12/02 09:31:01;;;;;;;56.35;19.88;;;0.80;99.90;;;;;;5017980;28;20091;-75
2022/12/02 09:33:29;;;;;;;52.80;20.85;;;2.80;99.90;;;;;;5024986;28;20230;-76
2022/12/02 09:35:55;;;;;;;55.53;21.42;;;3.20;99.90;;;;;;5035150;28;20204;-76
2022/12/02 09:38:20;;;;;;;52.25;20.10;;;2.50;99.90;;;;;;5007481;28;20071;-75
2022/12/02 09:40:46;;;;;;;46.55;18.65;;;2.40;99.90;;;;;;5041045;28;20044;-75
2022/12/02 09:44:12;;;;;;;;;;;;;;;;;;;;;
2022/12/02 09:47:02;;;;;;;48.08;19.77;;;1.60;99.90;;;;;;5043892;28;20114;-74
2022/12/02 09:50:03;;;;;;;45.20;18.63;;;2.40;99.90;;;;;;5027494;28;20094;-74
2022/12/02 09:52:40;;;;;;;44.65;18.85;;;5.20;99.90;;;;;;5040280;28;20283;-76
2022/12/02 09:55:13;;;;;;;48.42;18.85;;;2.50;99.90;;;;;;5027407;28;20238;-75
2022/12/02 09:57:41;;;;;;;44.80;19.13;;;2.50;99.90;;;;;;5041082;28;20039;-74
2022/12/02 10:00:14;;;;;;;46.97;18.77;;;3.00;99.90;;;;;;5008892;28;20228;-75
2022/12/02 10:03:38;;;;;;;47.03;20.52;;;2.40;99.90;;;;;;5027915;28;20090;-72
2022/12/02 10:06:27;;;;;;;45.65;18.23;;;2.70;99.90;;;;;;5032205;28;20204;-74
2022/12/02 10:08:56;;;;;;;41.25;17.50;;;2.40;99.90;;;;;;5043359;28;20032;-72
2022/12/02 10:11:32;;;;;;;61.97;25.02;;;2.30;99.90;;;;;;5020466;28;20017;-75
2022/12/02 10:14:05;;;;;;;48.17;22.05;;;3.30;99.90;;;;;;5022930;28;20040;-74
2022/12/02 10:17:10;;;;;;;57.92;25.92;;;4.30;99.90;;;;;;4990573;28;20046;-75
2022/12/02 10:19:44;;;;;;;59.90;26.98;;;2.00;99.90;;;;;;5027386;28;20041;-75
2022/12/02 10:22:18;;;;;;;45.45;22.23;;;2.40;99.90;;;;;;5019052;28;20097;-74
2022/12/02 10:24:51;;;;;;;44.63;21.27;;;3.10;99.90;;;;;;5038131;28;20033;-74
2022/12/02 10:27:29;;;;;;;47.90;22.27;;;2.40;99.90;;;;;;5049589;28;20047;-75
2022/12/02 10:30:18;;;;;;;44.05;20.52;;;2.50;99.90;;;;;;5030328;28;20034;-76
2022/12/02 10:33:04;;;;;;;42.78;19.20;;;2.40;99.90;;;;;;5030969;28;20037;-76
2022/12/02 10:35:50;;;;;;;40.75;19.80;;;2.40;99.90;;;;;;5041129;28;20032;-76
2022/12/02 10:38:44;;;;;;;39.92;18.38;;;3.80;99.90;;;;;;5071947;28;20044;-75
2022/12/02 10:41:42;;;;;;;45.05;20.98;;;2.40;99.90;;;;;;5041693;28;20343;-73
2022/12/02 10:44:19;;;;;;;45.53;22.25;;;2.50;99.90;;;;;;4940095;28;20102;-74
2022/12/02 10:46:45;;;;;;;44.65;21.33;;;2.50;99.90;;;;;;4984730;28;20124;-76
2022/12/02 10:49:26;;;;;;;47.70;22.60;;;4.30;99.90;;;;;;4983806;28;20077;-75
2022/12/02 10:53:18;;;;;;;40.58;18.27;;;2.50;99.90;;;;;;5003633;28;20172;-77
2022/12/02 10:55:36;;;;;;;41.97;19.98;;;2.90;99.90;;;;;;5017536;28;20275;-74
2022/12/02 10:58:24;;;;;;;40.63;19.38;;;4.30;99.90;;;;;;5014307;28;20021;-75
2022/12/02 11:00:50;;;;;;;43.53;20.70;;;2.40;99.90;;;;;;5004999;28;20370;-75
2022/12/02 11:03:18;;;;;;;49.42;24.60;;;3.50;99.90;;;;;;4987377;28;20029;-75
2022/12/02 11:05:45;;;;;;;48.05;22.90;;;4.00;99.90;;;;;;5010340;28;20216;-76
2022/12/02 11:08:25;;;;;;;49.28;24.60;;;3.30;99.90;;;;;;5014674;28;20165;-76
2022/12/02 11:11:15;;;;;;;47.38;21.58;;;2.80;99.90;;;;;;5022672;28;20177;-74
2022/12/02 11:13:52;;;;;;;51.25;24.90;;;2.50;99.90;;;;;;5022774;28;20101;-77
2022/12/02 11:16:30;;;;;;;49.10;23.52;;;2.50;99.90;;;;;;4999917;28;20052;-75
2022/12/02 11:19:02;;;;;;;40.15;19.17;;;2.50;99.90;;;;;;5020563;28;20107;-76
2022/12/02 11:21:28;;;;;;;53.13;25.92;;;2.50;99.90;;;;;;5026507;28;20047;-74
2022/12/02 11:24:31;;;;;;;53.97;27.10;;;4.00;99.90;;;;;;5055545;28;20428;-75
2022/12/02 11:27:03;;;;;;;51.17;26.20;;;2.60;99.90;;;;;;5036631;28;20236;-73
2022/12/02 11:29:40;;;;;;;49.13;25.02;;;2.70;99.90;;;;;;5024905;28;20705;-75
2022/12/02 11:32:21;;;;;;;49.13;25.00;;;2.70;99.90;;;;;;5021689;28;20039;-75
2022/12/02 11:34:54;;;;;;;46.72;23.80;;;2.70;99.90;;;;;;5043973;28;20037;-75
2022/12/02 11:37:28;;;;;;;42.13;20.45;;;2.70;99.90;;;;;;5045248;28;20037;-76
2022/12/02 11:40:17;;;;;;;42.10;22.58;;;2.70;99.90;;;;;;5068043;28;20070;-76
2022/12/02 11:47:32;;;;;;;46.38;23.05;;;3.00;99.90;;;;;;4929091;29;20083;-75
2022/12/02 11:50:36;;;;;;;41.80;21.52;;;2.80;99.90;;;;;;4918839;28;20050;-74
2022/12/02 11:53:21;;;;;;;43.85;23.00;;;2.90;99.90;;;;;;4984680;28;20037;-76
2022/12/02 11:55:50;;;;;;;41.45;21.55;;;2.70;99.90;;;;;;5023917;28;20051;-76
2022/12/02 11:58:17;;;;;;;44.58;23.15;;;2.70;99.90;;;;;;5021236;28;20208;-76
2022/12/02 12:01:18;;;;;;;43.55;23.15;;;4.00;99.90;;;;;;5020433;28;20033;-76
2022/12/02 12:03:53;;;;;;;35.78;20.45;;;2.70;99.90;;;;;;5052458;28;20375;-77
2022/12/02 12:06:24;;;;;;;42.33;22.55;;;2.70;99.90;;;;;;5024802;28;20114;-77
2022/12/02 12:08:57;;;;;;;40.38;21.50;;;2.60;99.90;;;;;;5027112;28;20109;-75
2022/12/02 12:11:25;;;;;;;44.88;23.15;;;2.70;99.90;;;;;;5019592;28;20029;-74
2022/12/02 12:14:41;;;;;;;42.42;22.80;;;3.10;99.90;;;;;;5030909;28;20047;-76
2022/12/02 12:17:41;;;;;;;37.85;20.05;;;2.60;99.90;;;;;;5025919;28;20059;-76
2022/12/02 12:20:18;;;;;;;38.95;20.98;;;2.70;99.90;;;;;;5040409;28;20061;-75
2022/12/02 12:22:46;;;;;;;43.50;22.83;;;2.70;99.90;;;;;;5043576;28;20088;-76
2022/12/02 12:25:49;;;;;;;37.20;19.98;;;2.70;99.90;;;;;;5005388;28;20040;-75
2022/12/02 12:28:23;;;;;;;40.42;20.42;;;2.70;99.90;;;;;;5023808;28;20049;-76
2022/12/02 12:30:49;;;;;;;40.05;20.20;;;4.70;99.90;;;;;;5033685;28;20091;-75
2022/12/02 12:33:14;;;;;;;41.13;21.17;;;4.20;99.90;;;;;;5030909;28;20100;-76
2022/12/02 12:35:40;;;;;;;36.97;21.05;;;2.60;99.90;;;;;;5008942;28;20035;-76
2022/12/02 12:38:15;;;;;;;39.45;20.25;;;2.50;99.90;;;;;;5007038;28;20517;-76
2022/12/02 12:40:53;;;;;;;40.75;19.33;;;2.60;99.90;;;;;;5028780;28;20044;-75
2022/12/02 12:43:31;;;;;;;40.53;20.38;;;2.90;99.90;;;;;;5022819;28;20048;-77
2022/12/02 12:51:02;;;;;;;38.93;20.07;;;2.90;99.90;;;;;;5031629;28;20262;-76
2022/12/02 12:53:57;;;;;;;41.83;19.90;;;3.90;99.90;;;;;;4990612;28;20072;-78
2022/12/02 12:56:23;;;;;;;42.40;21.23;;;2.50;99.90;;;;;;4932735;28;20681;-77
2022/12/02 12:58:51;;;;;;;42.60;21.77;;;4.30;99.90;;;;;;4991761;28;20045;-76
2022/12/02 13:01:20;;;;;;;45.85;22.80;;;4.60;99.90;;;;;;5014196;28;20458;-75
2022/12/02 13:03:54;;;;;;;45.58;22.85;;;4.40;99.90;;;;;;5040247;28;20045;-74
2022/12/02 13:06:24;;;;;;;43.92;21.83;;;2.60;99.90;;;;;;4990641;28;20057;-74
2022/12/02 13:08:50;;;;;;;43.83;22.70;;;1.70;99.90;;;;;;5020628;28;20056;-75
2022/12/02 13:11:16;;;;;;;40.67;21.80;;;2.50;99.90;;;;;;5036685;28;20033;-76
2022/12/02 13:13:42;;;;;;;44.65;22.73;;;3.90;99.90;;;;;;5022859;28;20024;-77
2022/12/02 13:16:08;;;;;;;46.28;23.73;;;2.50;99.90;;;;;;5021014;28;20066;-74
2022/12/02 13:18:34;;;;;;;45.17;24.40;;;2.60;99.90;;;;;;5024453;28;20036;-75
2022/12/02 13:20:59;;;;;;;35.47;19.02;;;2.60;99.90;;;;;;5029161;28;20043;-74
2022/12/02 13:23:25;;;;;;;50.40;25.80;;;2.70;99.90;;;;;;5041688;28;20037;-74
2022/12/02 13:25:50;;;;;;;50.83;26.00;;;2.80;99.90;;;;;;5035696;28;20048;-73
2022/12/02 13:28:16;;;;;;;51.35;27.35;;;2.50;99.90;;;;;;5026704;28;20358;-74
2022/12/02 13:30:42;;;;;;;48.72;23.33;;;2.50;99.90;;;;;;5022687;28;20373;-73
2022/12/02 13:33:07;;;;;;;56.85;29.88;;;3.50;99.90;;;;;;5039528;28;20032;-73
2022/12/02 13:35:33;;;;;;;48.97;25.40;;;2.70;99.90;;;;;;5036723;28;20028;-75
2022/12/02 13:37:59;;;;;;;56.13;29.00;;;2.50;99.90;;;;;;5042407;28;20037;-73
2022/12/02 13:40:24;;;;;;;52.60;28.15;;;3.10;99.90;;;;;;5024058;28;20499;-72